sensor_id;sensor_type;location;lat;lon;timestamp;P1;durP1;ratioP1;P2;durP2;ratioP2
40669;SDS011;26355;45.528;9.234;2023-03-22T00:00:53;42.25;;;25.52;;
40669;SDS011;26355;45.528;9.234;2023-03-22T00:03:20;41.78;;;26.60;;
40669;SDS011;26355;45.528;9.234;2023-03-22T00:05:46;40.65;;;27.67;;
40669;SDS011;26355;45.528;9.234;2023-03-22T00:08:12;39.03;;;25.73;;
40669;SDS011;26355;45.528;9.234;2023-03-22T00:10:38;43.63;;;26.02;;
40669;SDS011;26355;45.528;9.234;2023-03-22T00:13:05;39.97;;;24.77;;
40669;SDS011;26355;45.528;9.234;2023-03-22T00:15:33;41.50;;;26.05;;
40669;SDS011;26355;45.528;9.234;2023-03-22T00:18:00;41.53;;;25.63;;
40669;SDS011;26355;45.528;9.234;2023-03-22T00:20:27;41.72;;;26.55;;
40669;SDS011;26355;45.528;9.234;2023-03-22T00:22:57;39.28;;;26.60;;
40669;SDS011;26355;45.528;9.234;2023-03-22T00:25:24;41.67;;;29.10;;
40669;SDS011;26355;45.528;9.234;2023-03-22T00:27:50;48.35;;;32.85;;
40669;SDS011;26355;45.528;9.234;2023-03-22T00:30:15;45.38;;;31.05;;
40669;SDS011;26355;45.528;9.234;2023-03-22T00:32:41;47.17;;;32.38;;
40669;SDS011;26355;45.528;9.234;2023-03-22T00:35:08;44.20;;;31.27;;
40669;SDS011;26355;45.528;9.234;2023-03-22T00:37:34;45.67;;;32.65;;
40669;SDS011;26355;45.528;9.234;2023-03-22T00:40:03;48.88;;;32.88;;
40669;SDS011;26355;45.528;9.234;2023-03-22T00:42:32;48.10;;;33.40;;
40669;SDS011;26355;45.528;9.234;2023-03-22T00:45:02;48.90;;;32.20;;
40669;SDS011;26355;45.528;9.234;2023-03-22T00:47:29;50.03;;;34.55;;
40669;SDS011;26355;45.528;9.234;2023-03-22T00:49:55;48.75;;;33.33;;
40669;SDS011;26355;45.528;9.234;2023-03-22T00:52:21;48.28;;;34.80;;
40669;SDS011;26355;45.528;9.234;2023-03-22T00:54:46;47.80;;;32.95;;
40669;SDS011;26355;45.528;9.234;2023-03-22T00:57:12;47.10;;;32.88;;
40669;SDS011;26355;45.528;9.234;2023-03-22T00:59:39;50.10;;;34.05;;
40669;SDS011;26355;45.528;9.234;2023-03-22T01:02:06;50.75;;;35.38;;
40669;SDS011;26355;45.528;9.234;2023-03-22T01:04:33;47.83;;;33.15;;
40669;SDS011;26355;45.528;9.234;2023-03-22T01:07:00;47.60;;;33.90;;
40669;SDS011;26355;45.528;9.234;2023-03-22T01:09:27;53.15;;;34.88;;
40669;SDS011;26355;45.528;9.234;2023-03-22T01:11:58;53.50;;;34.45;;
40669;SDS011;26355;45.528;9.234;2023-03-22T01:14:26;50.65;;;35.47;;
40669;SDS011;26355;45.528;9.234;2023-03-22T01:16:52;49.53;;;34.57;;
40669;SDS011;26355;45.528;9.234;2023-03-22T01:19:22;48.70;;;34.92;;
40669;SDS011;26355;45.528;9.234;2023-03-22T01:21:48;48.33;;;33.53;;
40669;SDS011;26355;45.528;9.234;2023-03-22T01:24:14;49.42;;;35.47;;
40669;SDS011;26355;45.528;9.234;2023-03-22T01:26:40;48.97;;;35.37;;
40669;SDS011;26355;45.528;9.234;2023-03-22T01:29:06;51.20;;;35.33;;
40669;SDS011;26355;45.528;9.234;2023-03-22T01:31:32;49.85;;;35.70;;
40669;SDS011;26355;45.528;9.234;2023-03-22T01:33:58;53.65;;;35.17;;
40669;SDS011;26355;45.528;9.234;2023-03-22T01:36:24;49.78;;;34.55;;
40669;SDS011;26355;45.528;9.234;2023-03-22T01:38:50;51.03;;;36.38;;
40669;SDS011;26355;45.528;9.234;2023-03-22T01:41:15;48.88;;;35.42;;
40669;SDS011;26355;45.528;9.234;2023-03-22T01:43:42;54.88;;;34.53;;
40669;SDS011;26355;45.528;9.234;2023-03-22T01:46:07;54.10;;;35.50;;
40669;SDS011;26355;45.528;9.234;2023-03-22T01:48:36;51.50;;;35.80;;
40669;SDS011;26355;45.528;9.234;2023-03-22T01:51:12;51.15;;;34.25;;
40669;SDS011;26355;45.528;9.234;2023-03-22T01:53:46;52.50;;;35.70;;
40669;SDS011;26355;45.528;9.234;2023-03-22T01:56:15;50.10;;;35.38;;
40669;SDS011;26355;45.528;9.234;2023-03-22T01:58:43;48.97;;;33.90;;
40669;SDS011;26355;45.528;9.234;2023-03-22T02:01:10;50.80;;;34.75;;
40669;SDS011;26355;45.528;9.234;2023-03-22T02:03:39;50.22;;;34.58;;
40669;SDS011;26355;45.528;9.234;2023-03-22T02:06:11;51.13;;;35.20;;
40669;SDS011;26355;45.528;9.234;2023-03-22T02:08:37;45.47;;;32.25;;
40669;SDS011;26355;45.528;9.234;2023-03-22T02:11:04;52.78;;;35.63;;
40669;SDS011;26355;45.528;9.234;2023-03-22T02:16:21;51.42;;;36.05;;
40669;SDS011;26355;45.528;9.234;2023-03-22T02:27:38;50.25;;;36.22;;
40669;SDS011;26355;45.528;9.234;2023-03-22T02:45:54;50.42;;;34.42;;
40669;SDS011;26355;45.528;9.234;2023-03-22T02:48:31;49.42;;;33.55;;
40669;SDS011;26355;45.528;9.234;2023-03-22T02:51:10;49.80;;;35.72;;
40669;SDS011;26355;45.528;9.234;2023-03-22T02:53:43;48.38;;;34.47;;
40669;SDS011;26355;45.528;9.234;2023-03-22T02:56:19;54.08;;;35.38;;
40669;SDS011;26355;45.528;9.234;2023-03-22T02:58:51;49.92;;;34.53;;
40669;SDS011;26355;45.528;9.234;2023-03-22T03:03:56;47.30;;;35.40;;
40669;SDS011;26355;45.528;9.234;2023-03-22T03:06:25;48.83;;;34.10;;
40669;SDS011;26355;45.528;9.234;2023-03-22T03:08:56;50.22;;;33.50;;
40669;SDS011;26355;45.528;9.234;2023-03-22T03:11:26;49.38;;;34.53;;
40669;SDS011;26355;45.528;9.234;2023-03-22T03:13:52;50.17;;;35.97;;
40669;SDS011;26355;45.528;9.234;2023-03-22T03:16:20;49.05;;;33.40;;
40669;SDS011;26355;45.528;9.234;2023-03-22T03:21:54;50.75;;;35.45;;
40669;SDS011;26355;45.528;9.234;2023-03-22T03:25:05;49.15;;;34.15;;
40669;SDS011;26355;45.528;9.234;2023-03-22T03:27:39;51.05;;;35.72;;
40669;SDS011;26355;45.528;9.234;2023-03-22T03:30:23;53.65;;;34.90;;
40669;SDS011;26355;45.528;9.234;2023-03-22T03:32:59;52.75;;;37.25;;
40669;SDS011;26355;45.528;9.234;2023-03-22T03:35:31;54.70;;;37.05;;
40669;SDS011;26355;45.528;9.234;2023-03-22T03:38:11;51.15;;;35.28;;
40669;SDS011;26355;45.528;9.234;2023-03-22T03:40:47;53.58;;;37.58;;
40669;SDS011;26355;45.528;9.234;2023-03-22T03:43:18;54.47;;;35.55;;
40669;SDS011;26355;45.528;9.234;2023-03-22T03:45:44;51.65;;;34.78;;
40669;SDS011;26355;45.528;9.234;2023-03-22T03:48:14;52.17;;;37.28;;
40669;SDS011;26355;45.528;9.234;2023-03-22T03:50:44;53.63;;;35.35;;
40669;SDS011;26355;45.528;9.234;2023-03-22T03:53:11;52.45;;;36.05;;
40669;SDS011;26355;45.528;9.234;2023-03-22T03:55:37;54.25;;;36.10;;
40669;SDS011;26355;45.528;9.234;2023-03-22T03:58:02;59.67;;;35.22;;
40669;SDS011;26355;45.528;9.234;2023-03-22T04:00:28;50.13;;;34.38;;
40669;SDS011;26355;45.528;9.234;2023-03-22T04:02:53;52.17;;;35.72;;
40669;SDS011;26355;45.528;9.234;2023-03-22T04:05:19;49.60;;;34.75;;
40669;SDS011;26355;45.528;9.234;2023-03-22T04:07:45;53.63;;;34.35;;
40669;SDS011;26355;45.528;9.234;2023-03-22T04:10:10;48.50;;;33.92;;
40669;SDS011;26355;45.528;9.234;2023-03-22T04:12:36;50.45;;;35.30;;
40669;SDS011;26355;45.528;9.234;2023-03-22T04:15:02;48.05;;;34.20;;
40669;SDS011;26355;45.528;9.234;2023-03-22T04:17:28;53.50;;;37.53;;
40669;SDS011;26355;45.528;9.234;2023-03-22T04:19:55;50.92;;;36.45;;
40669;SDS011;26355;45.528;9.234;2023-03-22T04:22:22;49.45;;;35.15;;
40669;SDS011;26355;45.528;9.234;2023-03-22T04:24:47;54.45;;;36.45;;
40669;SDS011;26355;45.528;9.234;2023-03-22T04:27:16;52.38;;;35.75;;
40669;SDS011;26355;45.528;9.234;2023-03-22T04:29:43;54.25;;;36.08;;
40669;SDS011;26355;45.528;9.234;2023-03-22T04:32:15;50.25;;;34.85;;
40669;SDS011;26355;45.528;9.234;2023-03-22T04:34:43;51.45;;;36.15;;
40669;SDS011;26355;45.528;9.234;2023-03-22T04:37:10;49.88;;;34.65;;
40669;SDS011;26355;45.528;9.234;2023-03-22T04:39:36;50.10;;;35.70;;
40669;SDS011;26355;45.528;9.234;2023-03-22T04:42:02;49.40;;;35.85;;
40669;SDS011;26355;45.528;9.234;2023-03-22T04:44:28;51.03;;;36.25;;
40669;SDS011;26355;45.528;9.234;2023-03-22T04:46:53;48.40;;;34.40;;
40669;SDS011;26355;45.528;9.234;2023-03-22T04:49:20;50.15;;;35.42;;
40669;SDS011;26355;45.528;9.234;2023-03-22T04:51:45;52.00;;;36.28;;
40669;SDS011;26355;45.528;9.234;2023-03-22T04:54:11;52.55;;;37.17;;
40669;SDS011;26355;45.528;9.234;2023-03-22T04:56:37;50.65;;;35.67;;
40669;SDS011;26355;45.528;9.234;2023-03-22T04:59:03;51.05;;;37.03;;
40669;SDS011;26355;45.528;9.234;2023-03-22T05:01:28;51.83;;;36.72;;
40669;SDS011;26355;45.528;9.234;2023-03-22T05:03:54;53.03;;;36.95;;
40669;SDS011;26355;45.528;9.234;2023-03-22T05:06:19;54.88;;;38.60;;
40669;SDS011;26355;45.528;9.234;2023-03-22T05:08:45;50.05;;;36.30;;
40669;SDS011;26355;45.528;9.234;2023-03-22T05:11:12;52.35;;;35.92;;
40669;SDS011;26355;45.528;9.234;2023-03-22T05:13:40;53.88;;;35.78;;
40669;SDS011;26355;45.528;9.234;2023-03-22T05:16:06;52.40;;;36.28;;
40669;SDS011;26355;45.528;9.234;2023-03-22T05:18:33;55.25;;;36.53;;
40669;SDS011;26355;45.528;9.234;2023-03-22T05:20:59;54.00;;;37.08;;
40669;SDS011;26355;45.528;9.234;2023-03-22T05:23:27;53.05;;;35.92;;
40669;SDS011;26355;45.528;9.234;2023-03-22T05:25:53;58.05;;;37.33;;
40669;SDS011;26355;45.528;9.234;2023-03-22T05:28:22;58.55;;;37.85;;
40669;SDS011;26355;45.528;9.234;2023-03-22T05:30:51;51.97;;;36.60;;
40669;SDS011;26355;45.528;9.234;2023-03-22T05:33:17;53.33;;;35.78;;
40669;SDS011;26355;45.528;9.234;2023-03-22T05:35:46;51.67;;;35.80;;
40669;SDS011;26355;45.528;9.234;2023-03-22T05:38:13;51.97;;;35.83;;
40669;SDS011;26355;45.528;9.234;2023-03-22T05:40:38;50.42;;;35.13;;
40669;SDS011;26355;45.528;9.234;2023-03-22T05:43:04;47.75;;;34.42;;
40669;SDS011;26355;45.528;9.234;2023-03-22T05:45:29;53.35;;;35.80;;
40669;SDS011;26355;45.528;9.234;2023-03-22T05:47:56;52.75;;;35.38;;
40669;SDS011;26355;45.528;9.234;2023-03-22T05:50:22;48.60;;;34.17;;
40669;SDS011;26355;45.528;9.234;2023-03-22T05:52:48;55.03;;;34.83;;
40669;SDS011;26355;45.528;9.234;2023-03-22T05:57:41;48.88;;;32.05;;
40669;SDS011;26355;45.528;9.234;2023-03-22T06:00:08;48.55;;;34.03;;
40669;SDS011;26355;45.528;9.234;2023-03-22T06:02:37;49.25;;;33.53;;
40669;SDS011;26355;45.528;9.234;2023-03-22T06:05:03;50.42;;;34.55;;
40669;SDS011;26355;45.528;9.234;2023-03-22T06:07:29;51.17;;;34.17;;
40669;SDS011;26355;45.528;9.234;2023-03-22T06:09:55;47.42;;;34.30;;
40669;SDS011;26355;45.528;9.234;2023-03-22T06:12:21;47.63;;;33.75;;
40669;SDS011;26355;45.528;9.234;2023-03-22T06:14:48;49.13;;;34.20;;
40669;SDS011;26355;45.528;9.234;2023-03-22T06:17:14;55.97;;;35.67;;
40669;SDS011;26355;45.528;9.234;2023-03-22T06:19:40;56.97;;;37.13;;
40669;SDS011;26355;45.528;9.234;2023-03-22T06:22:06;53.63;;;33.78;;
40669;SDS011;26355;45.528;9.234;2023-03-22T06:24:31;58.78;;;34.55;;
40669;SDS011;26355;45.528;9.234;2023-03-22T06:26:57;53.83;;;32.70;;
40669;SDS011;26355;45.528;9.234;2023-03-22T06:29:23;48.95;;;34.20;;
40669;SDS011;26355;45.528;9.234;2023-03-22T06:31:49;52.58;;;34.85;;
40669;SDS011;26355;45.528;9.234;2023-03-22T06:34:14;51.55;;;34.22;;
40669;SDS011;26355;45.528;9.234;2023-03-22T06:36:40;49.25;;;32.70;;
40669;SDS011;26355;45.528;9.234;2023-03-22T06:39:06;48.20;;;34.17;;
40669;SDS011;26355;45.528;9.234;2023-03-22T06:41:32;49.80;;;34.30;;
40669;SDS011;26355;45.528;9.234;2023-03-22T06:43:58;51.20;;;34.92;;
40669;SDS011;26355;45.528;9.234;2023-03-22T06:46:24;50.42;;;34.97;;
40669;SDS011;26355;45.528;9.234;2023-03-22T06:48:50;45.85;;;33.47;;
40669;SDS011;26355;45.528;9.234;2023-03-22T06:51:15;49.97;;;35.70;;
40669;SDS011;26355;45.528;9.234;2023-03-22T06:53:41;49.80;;;33.92;;
40669;SDS011;26355;45.528;9.234;2023-03-22T06:56:07;51.83;;;34.85;;
40669;SDS011;26355;45.528;9.234;2023-03-22T06:58:33;50.80;;;34.97;;
40669;SDS011;26355;45.528;9.234;2023-03-22T07:00:58;48.58;;;33.22;;
40669;SDS011;26355;45.528;9.234;2023-03-22T07:03:24;48.85;;;33.38;;
40669;SDS011;26355;45.528;9.234;2023-03-22T07:05:49;50.58;;;35.10;;
40669;SDS011;26355;45.528;9.234;2023-03-22T07:08:15;48.55;;;35.50;;
40669;SDS011;26355;45.528;9.234;2023-03-22T07:10:48;53.38;;;34.38;;
40669;SDS011;26355;45.528;9.234;2023-03-22T07:13:22;51.88;;;34.65;;
40669;SDS011;26355;45.528;9.234;2023-03-22T07:15:48;48.00;;;34.65;;
40669;SDS011;26355;45.528;9.234;2023-03-22T07:18:13;54.72;;;35.85;;
40669;SDS011;26355;45.528;9.234;2023-03-22T07:20:39;52.33;;;34.95;;
40669;SDS011;26355;45.528;9.234;2023-03-22T07:23:08;52.35;;;34.65;;
40669;SDS011;26355;45.528;9.234;2023-03-22T07:25:34;56.95;;;35.33;;
40669;SDS011;26355;45.528;9.234;2023-03-22T07:28:00;50.28;;;35.47;;
40669;SDS011;26355;45.528;9.234;2023-03-22T07:30:25;53.40;;;35.15;;
40669;SDS011;26355;45.528;9.234;2023-03-22T07:32:51;53.88;;;35.53;;
40669;SDS011;26355;45.528;9.234;2023-03-22T07:35:17;50.88;;;36.35;;
40669;SDS011;26355;45.528;9.234;2023-03-22T07:37:43;51.45;;;35.25;;
40669;SDS011;26355;45.528;9.234;2023-03-22T07:40:09;51.90;;;34.88;;
40669;SDS011;26355;45.528;9.234;2023-03-22T07:42:36;56.47;;;34.55;;
40669;SDS011;26355;45.528;9.234;2023-03-22T07:45:02;63.63;;;36.28;;
40669;SDS011;26355;45.528;9.234;2023-03-22T07:47:28;58.45;;;38.10;;
40669;SDS011;26355;45.528;9.234;2023-03-22T07:49:55;51.13;;;35.43;;
40669;SDS011;26355;45.528;9.234;2023-03-22T07:52:20;54.60;;;37.75;;
40669;SDS011;26355;45.528;9.234;2023-03-22T07:54:46;54.42;;;36.97;;
40669;SDS011;26355;45.528;9.234;2023-03-22T07:57:11;54.20;;;37.97;;
40669;SDS011;26355;45.528;9.234;2023-03-22T07:59:37;55.95;;;38.08;;
40669;SDS011;26355;45.528;9.234;2023-03-22T08:02:03;54.35;;;37.75;;
40669;SDS011;26355;45.528;9.234;2023-03-22T08:04:28;58.17;;;39.95;;
40669;SDS011;26355;45.528;9.234;2023-03-22T08:06:55;61.03;;;40.40;;
40669;SDS011;26355;45.528;9.234;2023-03-22T08:09:23;56.33;;;38.88;;
40669;SDS011;26355;45.528;9.234;2023-03-22T08:11:49;58.28;;;38.85;;
40669;SDS011;26355;45.528;9.234;2023-03-22T08:14:15;58.45;;;40.30;;
40669;SDS011;26355;45.528;9.234;2023-03-22T08:16:41;57.55;;;41.45;;
40669;SDS011;26355;45.528;9.234;2023-03-22T08:19:08;58.20;;;41.83;;
40669;SDS011;26355;45.528;9.234;2023-03-22T08:21:34;58.70;;;42.03;;
40669;SDS011;26355;45.528;9.234;2023-03-22T08:24:00;58.78;;;41.72;;
40669;SDS011;26355;45.528;9.234;2023-03-22T08:26:26;59.50;;;42.58;;
40669;SDS011;26355;45.528;9.234;2023-03-22T08:28:52;62.75;;;44.33;;
40669;SDS011;26355;45.528;9.234;2023-03-22T08:31:18;61.08;;;44.92;;
40669;SDS011;26355;45.528;9.234;2023-03-22T08:33:44;62.03;;;44.45;;
40669;SDS011;26355;45.528;9.234;2023-03-22T08:36:11;60.55;;;43.55;;
40669;SDS011;26355;45.528;9.234;2023-03-22T08:38:39;61.30;;;44.25;;
40669;SDS011;26355;45.528;9.234;2023-03-22T08:43:31;61.10;;;42.67;;
40669;SDS011;26355;45.528;9.234;2023-03-22T08:45:57;58.60;;;42.63;;
40669;SDS011;26355;45.528;9.234;2023-03-22T08:48:23;62.22;;;43.80;;
40669;SDS011;26355;45.528;9.234;2023-03-22T08:50:48;61.67;;;44.40;;
40669;SDS011;26355;45.528;9.234;2023-03-22T08:53:14;58.45;;;41.90;;
40669;SDS011;26355;45.528;9.234;2023-03-22T08:55:40;60.88;;;43.08;;
40669;SDS011;26355;45.528;9.234;2023-03-22T08:58:09;58.55;;;43.72;;
40669;SDS011;26355;45.528;9.234;2023-03-22T09:00:35;59.40;;;43.08;;
40669;SDS011;26355;45.528;9.234;2023-03-22T09:03:03;64.22;;;45.70;;
40669;SDS011;26355;45.528;9.234;2023-03-22T09:05:28;65.43;;;44.88;;
40669;SDS011;26355;45.528;9.234;2023-03-22T09:07:54;61.65;;;42.40;;
40669;SDS011;26355;45.528;9.234;2023-03-22T09:10:20;64.70;;;43.67;;
40669;SDS011;26355;45.528;9.234;2023-03-22T09:12:46;63.20;;;44.47;;
40669;SDS011;26355;45.528;9.234;2023-03-22T09:15:12;61.05;;;42.55;;
40669;SDS011;26355;45.528;9.234;2023-03-22T09:17:38;62.42;;;45.72;;
40669;SDS011;26355;45.528;9.234;2023-03-22T09:20:04;64.10;;;43.85;;
40669;SDS011;26355;45.528;9.234;2023-03-22T09:22:31;62.40;;;44.95;;
40669;SDS011;26355;45.528;9.234;2023-03-22T09:24:57;63.03;;;44.35;;
40669;SDS011;26355;45.528;9.234;2023-03-22T09:27:22;59.08;;;43.80;;
40669;SDS011;26355;45.528;9.234;2023-03-22T09:29:48;57.95;;;41.65;;
40669;SDS011;26355;45.528;9.234;2023-03-22T09:32:15;57.33;;;41.42;;
40669;SDS011;26355;45.528;9.234;2023-03-22T09:34:41;56.97;;;42.15;;
40669;SDS011;26355;45.528;9.234;2023-03-22T09:37:07;61.03;;;42.30;;
40669;SDS011;26355;45.528;9.234;2023-03-22T09:39:32;56.53;;;42.97;;
40669;SDS011;26355;45.528;9.234;2023-03-22T09:42:03;58.03;;;43.13;;
40669;SDS011;26355;45.528;9.234;2023-03-22T09:44:40;56.90;;;42.10;;
40669;SDS011;26355;45.528;9.234;2023-03-22T09:47:16;60.45;;;46.25;;
40669;SDS011;26355;45.528;9.234;2023-03-22T09:49:46;57.80;;;43.60;;
40669;SDS011;26355;45.528;9.234;2023-03-22T09:52:15;59.85;;;42.55;;
40669;SDS011;26355;45.528;9.234;2023-03-22T09:54:42;57.22;;;43.80;;
40669;SDS011;26355;45.528;9.234;2023-03-22T09:57:13;57.92;;;43.97;;
40669;SDS011;26355;45.528;9.234;2023-03-22T09:59:51;62.97;;;45.95;;
40669;SDS011;26355;45.528;9.234;2023-03-22T10:10:20;59.67;;;43.33;;
40669;SDS011;26355;45.528;9.234;2023-03-22T10:13:01;54.78;;;42.10;;
40669;SDS011;26355;45.528;9.234;2023-03-22T10:15:48;56.35;;;41.13;;
40669;SDS011;26355;45.528;9.234;2023-03-22T10:18:21;54.20;;;40.83;;
40669;SDS011;26355;45.528;9.234;2023-03-22T10:29:09;49.75;;;38.33;;
40669;SDS011;26355;45.528;9.234;2023-03-22T10:31:47;48.97;;;37.80;;
40669;SDS011;26355;45.528;9.234;2023-03-22T10:34:23;57.63;;;41.40;;
40669;SDS011;26355;45.528;9.234;2023-03-22T10:36:57;51.40;;;38.40;;
40669;SDS011;26355;45.528;9.234;2023-03-22T10:39:34;53.28;;;39.33;;
40669;SDS011;26355;45.528;9.234;2023-03-22T10:42:07;52.80;;;40.22;;
40669;SDS011;26355;45.528;9.234;2023-03-22T10:44:44;55.88;;;40.08;;
40669;SDS011;26355;45.528;9.234;2023-03-22T10:47:17;52.13;;;39.80;;
40669;SDS011;26355;45.528;9.234;2023-03-22T10:49:50;54.35;;;39.45;;
40669;SDS011;26355;45.528;9.234;2023-03-22T10:52:30;53.47;;;38.45;;
40669;SDS011;26355;45.528;9.234;2023-03-22T10:55:02;58.47;;;41.47;;
40669;SDS011;26355;45.528;9.234;2023-03-22T10:57:28;48.92;;;37.10;;
40669;SDS011;26355;45.528;9.234;2023-03-22T10:59:54;47.63;;;35.92;;
40669;SDS011;26355;45.528;9.234;2023-03-22T11:02:28;49.65;;;38.58;;
40669;SDS011;26355;45.528;9.234;2023-03-22T11:04:57;46.15;;;34.45;;
40669;SDS011;26355;45.528;9.234;2023-03-22T11:07:38;51.70;;;38.42;;
40669;SDS011;26355;45.528;9.234;2023-03-22T11:12:37;52.90;;;38.47;;
40669;SDS011;26355;45.528;9.234;2023-03-22T11:15:06;51.80;;;38.63;;
40669;SDS011;26355;45.528;9.234;2023-03-22T11:18:12;52.58;;;40.88;;
40669;SDS011;26355;45.528;9.234;2023-03-22T11:20:40;58.25;;;41.47;;
40669;SDS011;26355;45.528;9.234;2023-03-22T11:23:15;50.13;;;40.08;;
40669;SDS011;26355;45.528;9.234;2023-03-22T11:25:45;51.13;;;37.33;;
40669;SDS011;26355;45.528;9.234;2023-03-22T11:28:25;53.88;;;40.53;;
40669;SDS011;26355;45.528;9.234;2023-03-22T11:33:33;55.65;;;42.00;;
40669;SDS011;26355;45.528;9.234;2023-03-22T11:36:00;51.83;;;41.03;;
40669;SDS011;26355;45.528;9.234;2023-03-22T11:41:01;50.33;;;39.38;;
40669;SDS011;26355;45.528;9.234;2023-03-22T11:43:41;51.78;;;39.88;;
40669;SDS011;26355;45.528;9.234;2023-03-22T11:46:13;52.33;;;37.42;;
40669;SDS011;26355;45.528;9.234;2023-03-22T11:48:41;48.58;;;37.83;;
40669;SDS011;26355;45.528;9.234;2023-03-22T11:51:14;49.60;;;38.50;;
40669;SDS011;26355;45.528;9.234;2023-03-22T11:53:43;49.05;;;37.15;;
40669;SDS011;26355;45.528;9.234;2023-03-22T11:56:14;51.50;;;38.08;;
40669;SDS011;26355;45.528;9.234;2023-03-22T11:59:02;55.35;;;40.60;;
40669;SDS011;26355;45.528;9.234;2023-03-22T12:04:34;49.70;;;37.83;;
40669;SDS011;26355;45.528;9.234;2023-03-22T12:07:05;49.30;;;38.72;;
40669;SDS011;26355;45.528;9.234;2023-03-22T12:09:50;47.28;;;34.90;;
40669;SDS011;26355;45.528;9.234;2023-03-22T12:12:27;47.80;;;34.55;;
40669;SDS011;26355;45.528;9.234;2023-03-22T12:17:41;46.00;;;35.95;;
40669;SDS011;26355;45.528;9.234;2023-03-22T12:22:51;43.75;;;31.58;;
40669;SDS011;26355;45.528;9.234;2023-03-22T12:25:19;42.40;;;29.95;;
40669;SDS011;26355;45.528;9.234;2023-03-22T12:27:50;43.90;;;32.40;;
40669;SDS011;26355;45.528;9.234;2023-03-22T12:30:24;41.55;;;30.85;;
40669;SDS011;26355;45.528;9.234;2023-03-22T12:33:13;44.17;;;30.75;;
40669;SDS011;26355;45.528;9.234;2023-03-22T12:35:49;43.63;;;30.45;;
40669;SDS011;26355;45.528;9.234;2023-03-22T12:38:30;43.15;;;29.45;;
40669;SDS011;26355;45.528;9.234;2023-03-22T12:41:08;45.35;;;29.33;;
40669;SDS011;26355;45.528;9.234;2023-03-22T12:43:40;82.80;;;51.28;;
40669;SDS011;26355;45.528;9.234;2023-03-22T12:48:51;38.92;;;26.10;;
40669;SDS011;26355;45.528;9.234;2023-03-22T12:51:39;36.83;;;23.73;;
40669;SDS011;26355;45.528;9.234;2023-03-22T12:54:08;36.20;;;23.73;;
40669;SDS011;26355;45.528;9.234;2023-03-22T12:56:37;38.28;;;24.75;;
40669;SDS011;26355;45.528;9.234;2023-03-22T12:59:09;37.70;;;23.67;;
40669;SDS011;26355;45.528;9.234;2023-03-22T13:07:15;35.58;;;22.70;;
40669;SDS011;26355;45.528;9.234;2023-03-22T13:10:01;38.10;;;21.42;;
40669;SDS011;26355;45.528;9.234;2023-03-22T13:15:36;32.35;;;18.92;;
40669;SDS011;26355;45.528;9.234;2023-03-22T13:18:21;33.78;;;19.08;;
40669;SDS011;26355;45.528;9.234;2023-03-22T13:29:00;32.70;;;19.58;;
40669;SDS011;26355;45.528;9.234;2023-03-22T13:34:18;31.05;;;18.10;;
40669;SDS011;26355;45.528;9.234;2023-03-22T13:37:08;35.20;;;20.45;;
40669;SDS011;26355;45.528;9.234;2023-03-22T13:39:48;34.90;;;19.08;;
40669;SDS011;26355;45.528;9.234;2023-03-22T13:42:19;35.67;;;19.40;;
40669;SDS011;26355;45.528;9.234;2023-03-22T13:44:55;35.75;;;19.60;;
40669;SDS011;26355;45.528;9.234;2023-03-22T13:47:31;34.33;;;20.17;;
40669;SDS011;26355;45.528;9.234;2023-03-22T13:52:53;33.17;;;19.27;;
40669;SDS011;26355;45.528;9.234;2023-03-22T13:58:16;31.02;;;19.50;;
40669;SDS011;26355;45.528;9.234;2023-03-22T14:01:00;32.47;;;18.58;;
40669;SDS011;26355;45.528;9.234;2023-03-22T14:03:33;28.30;;;16.65;;
40669;SDS011;26355;45.528;9.234;2023-03-22T14:06:12;27.92;;;13.68;;
40669;SDS011;26355;45.528;9.234;2023-03-22T14:08:43;26.58;;;13.65;;
40669;SDS011;26355;45.528;9.234;2023-03-22T14:14:18;25.33;;;12.35;;
40669;SDS011;26355;45.528;9.234;2023-03-22T14:16:48;26.65;;;12.52;;
40669;SDS011;26355;45.528;9.234;2023-03-22T14:19:28;23.55;;;10.45;;
40669;SDS011;26355;45.528;9.234;2023-03-22T14:21:58;21.63;;;10.13;;
40669;SDS011;26355;45.528;9.234;2023-03-22T14:24:28;23.70;;;9.30;;
40669;SDS011;26355;45.528;9.234;2023-03-22T14:26:57;25.23;;;11.38;;
40669;SDS011;26355;45.528;9.234;2023-03-22T14:29:24;25.23;;;12.85;;
40669;SDS011;26355;45.528;9.234;2023-03-22T14:32:02;26.27;;;13.15;;
40669;SDS011;26355;45.528;9.234;2023-03-22T14:34:32;24.73;;;12.35;;
40669;SDS011;26355;45.528;9.234;2023-03-22T14:37:02;26.42;;;11.15;;
40669;SDS011;26355;45.528;9.234;2023-03-22T14:39:33;23.52;;;11.63;;
40669;SDS011;26355;45.528;9.234;2023-03-22T14:44:48;23.33;;;10.98;;
40669;SDS011;26355;45.528;9.234;2023-03-22T14:47:18;24.35;;;11.48;;
40669;SDS011;26355;45.528;9.234;2023-03-22T14:49:58;23.75;;;11.88;;
40669;SDS011;26355;45.528;9.234;2023-03-22T14:52:29;23.58;;;11.70;;
40669;SDS011;26355;45.528;9.234;2023-03-22T14:55:00;23.35;;;11.55;;
40669;SDS011;26355;45.528;9.234;2023-03-22T14:57:32;22.92;;;10.02;;
40669;SDS011;26355;45.528;9.234;2023-03-22T15:00:02;21.70;;;8.73;;
40669;SDS011;26355;45.528;9.234;2023-03-22T15:02:40;18.77;;;7.97;;
40669;SDS011;26355;45.528;9.234;2023-03-22T15:05:08;19.20;;;6.90;;
40669;SDS011;26355;45.528;9.234;2023-03-22T15:07:52;19.05;;;6.65;;
40669;SDS011;26355;45.528;9.234;2023-03-22T15:10:22;19.75;;;6.93;;
40669;SDS011;26355;45.528;9.234;2023-03-22T15:12:51;19.10;;;7.80;;
40669;SDS011;26355;45.528;9.234;2023-03-22T15:15:20;19.83;;;8.43;;
40669;SDS011;26355;45.528;9.234;2023-03-22T15:17:50;22.88;;;8.98;;
40669;SDS011;26355;45.528;9.234;2023-03-22T15:20:18;22.13;;;9.48;;
40669;SDS011;26355;45.528;9.234;2023-03-22T15:22:51;22.38;;;8.70;;
40669;SDS011;26355;45.528;9.234;2023-03-22T15:25:18;19.67;;;8.05;;
40669;SDS011;26355;45.528;9.234;2023-03-22T15:27:44;21.27;;;7.43;;
40669;SDS011;26355;45.528;9.234;2023-03-22T15:30:10;18.08;;;7.55;;
40669;SDS011;26355;45.528;9.234;2023-03-22T15:32:41;19.10;;;7.63;;
40669;SDS011;26355;45.528;9.234;2023-03-22T15:35:07;20.30;;;7.30;;
40669;SDS011;26355;45.528;9.234;2023-03-22T15:37:40;20.20;;;8.55;;
40669;SDS011;26355;45.528;9.234;2023-03-22T15:40:27;22.63;;;8.13;;
40669;SDS011;26355;45.528;9.234;2023-03-22T15:43:05;19.02;;;8.05;;
40669;SDS011;26355;45.528;9.234;2023-03-22T15:45:39;20.58;;;8.30;;
40669;SDS011;26355;45.528;9.234;2023-03-22T15:50:47;20.27;;;8.85;;
40669;SDS011;26355;45.528;9.234;2023-03-22T15:53:48;20.42;;;9.10;;
40669;SDS011;26355;45.528;9.234;2023-03-22T15:56:16;18.63;;;8.02;;
40669;SDS011;26355;45.528;9.234;2023-03-22T15:58:55;22.48;;;9.57;;
40669;SDS011;26355;45.528;9.234;2023-03-22T16:01:23;20.50;;;9.90;;
40669;SDS011;26355;45.528;9.234;2023-03-22T16:03:51;21.50;;;9.30;;
40669;SDS011;26355;45.528;9.234;2023-03-22T16:06:25;22.15;;;10.07;;
40669;SDS011;26355;45.528;9.234;2023-03-22T16:08:53;21.23;;;9.93;;
40669;SDS011;26355;45.528;9.234;2023-03-22T16:11:21;24.05;;;9.93;;
40669;SDS011;26355;45.528;9.234;2023-03-22T16:13:49;23.33;;;10.32;;
40669;SDS011;26355;45.528;9.234;2023-03-22T16:16:16;20.40;;;9.40;;
40669;SDS011;26355;45.528;9.234;2023-03-22T16:18:44;21.33;;;9.60;;
40669;SDS011;26355;45.528;9.234;2023-03-22T16:21:10;22.02;;;8.75;;
40669;SDS011;26355;45.528;9.234;2023-03-22T16:23:38;18.75;;;6.82;;